createdAt,value
2022-10-06T00:03:46.373Z,10.03
2022-10-06T00:07:48.352Z,9.92
2022-10-06T00:11:50.031Z,9.90
2022-10-06T00:15:52.454Z,9.91
2022-10-06T00:19:54.222Z,9.97
2022-10-06T00:23:56.039Z,9.93
2022-10-06T00:27:57.714Z,9.80
2022-10-06T00:31:59.738Z,9.76
2022-10-06T00:36:01.992Z,9.74
2022-10-06T00:40:09.691Z,9.62
2022-10-06T00:44:11.427Z,9.59
2022-10-06T00:48:24.018Z,9.52
2022-10-06T00:52:29.363Z,9.44
2022-10-06T00:56:31.569Z,9.36
2022-10-06T01:00:33.665Z,9.39
2022-10-06T01:04:38.235Z,9.38
2022-10-06T01:08:40.399Z,9.26
2022-10-06T01:12:42.886Z,9.20
2022-10-06T01:16:49.543Z,9.13
2022-10-06T01:21:03.468Z,9.22
2022-10-06T01:25:08.286Z,9.17
2022-10-06T01:29:10.475Z,9.18
2022-10-06T01:33:13.036Z,9.16
2022-10-06T01:37:16.284Z,9.21
2022-10-06T01:41:18.103Z,9.24
2022-10-06T01:45:21.444Z,9.16
2022-10-06T01:49:23.103Z,9.17
2022-10-06T01:53:25.173Z,9.21
2022-10-06T01:57:27.104Z,9.23
2022-10-06T02:01:29.179Z,9.23
2022-10-06T02:05:31.300Z,9.17
2022-10-06T02:09:33.461Z,9.30
2022-10-06T02:13:39.139Z,9.35
2022-10-06T02:17:41.004Z,9.34
2022-10-06T02:21:42.871Z,9.32
2022-10-06T02:25:44.800Z,9.23
2022-10-06T02:29:46.777Z,9.21
2022-10-06T02:33:49.961Z,9.20
2022-10-06T02:38:18.316Z,9.20
2022-10-06T02:42:20.319Z,9.13
2022-10-06T02:46:22.615Z,9.12
2022-10-06T02:50:26.399Z,9.10
2022-10-06T02:54:28.206Z,8.99
2022-10-06T02:58:31.124Z,9.04
2022-10-06T03:02:37.950Z,9.01
2022-10-06T03:06:40.158Z,9.02
2022-10-06T03:10:46.367Z,8.98
2022-10-06T03:14:48.644Z,8.88
2022-10-06T03:18:53.163Z,8.92
2022-10-06T03:23:01.827Z,8.95
2022-10-06T03:27:03.755Z,8.86
2022-10-06T03:31:06.355Z,8.75
2022-10-06T03:35:08.731Z,8.70
2022-10-06T03:39:10.717Z,8.72
2022-10-06T03:43:13.316Z,8.63
2022-10-06T03:47:17.517Z,8.69
2022-10-06T03:51:23.740Z,8.69
2022-10-06T03:55:26.336Z,8.91
2022-10-06T03:59:31.510Z,8.79
2022-10-06T04:03:34.583Z,8.74
2022-10-06T04:07:37.109Z,8.75
2022-10-06T04:11:40.562Z,8.65
2022-10-06T04:15:43.500Z,8.67
2022-10-06T04:19:45.528Z,8.74
2022-10-06T04:24:13.586Z,8.67
2022-10-06T04:28:18.502Z,8.60
2022-10-06T04:32:20.513Z,8.56
2022-10-06T04:36:31.327Z,8.44
2022-10-06T04:40:33.517Z,8.30
2022-10-06T04:44:35.427Z,8.28
2022-10-06T04:48:38.228Z,8.22
2022-10-06T04:52:40.166Z,8.16
2022-10-06T04:56:42.029Z,8.08
2022-10-06T05:00:45.145Z,8.04
2022-10-06T05:04:46.887Z,7.97
2022-10-06T05:08:53.567Z,7.95
2022-10-06T05:12:57.454Z,7.94
2022-10-06T05:16:59.655Z,7.96
2022-10-06T05:21:07.546Z,7.96
2022-10-06T05:25:09.703Z,7.97
2022-10-06T05:29:11.487Z,8.05
2022-10-06T05:33:14.332Z,8.12
2022-10-06T05:37:16.161Z,8.11
2022-10-06T05:41:24.108Z,8.27
2022-10-06T05:45:26.665Z,8.38
2022-10-06T05:49:28.640Z,8.53
2022-10-06T05:53:35.770Z,9.03
2022-10-06T05:57:39.129Z,9.16
2022-10-06T06:01:43.307Z,9.56
2022-10-06T06:05:52.479Z,9.83
2022-10-06T06:09:54.334Z,10.29
2022-10-06T06:13:56.919Z,10.74
2022-10-06T06:17:58.730Z,11.52
2022-10-06T06:22:00.828Z,11.93
2022-10-06T06:26:06.858Z,12.32
2022-10-06T06:30:12.545Z,12.88
2022-10-06T06:34:15.764Z,13.35
2022-10-06T06:38:18.954Z,13.66
2022-10-06T06:42:22.587Z,13.93
2022-10-06T06:46:45.815Z,14.14
2022-10-06T06:51:15.257Z,14.26
2022-10-06T06:55:17.402Z,14.55
2022-10-06T06:59:20.444Z,14.61
2022-10-06T07:03:45.233Z,14.55
2022-10-06T07:07:47.684Z,14.68
2022-10-06T07:11:50.250Z,14.82
2022-10-06T07:16:13.768Z,14.81
2022-10-06T07:20:34.725Z,14.84
2022-10-06T07:24:55.501Z,14.92
2022-10-06T07:29:01.341Z,14.99
2022-10-06T07:33:05.090Z,14.99
2022-10-06T07:37:09.070Z,15.02
2022-10-06T07:41:19.688Z,15.14
2022-10-06T07:45:39.309Z,15.21
2022-10-06T07:49:46.369Z,15.21
2022-10-06T07:54:13.258Z,15.14
2022-10-06T07:58:26.048Z,15.16
2022-10-06T08:02:31.475Z,15.24
2022-10-06T08:06:36.707Z,15.25
2022-10-06T08:10:38.337Z,15.47
2022-10-06T08:14:40.338Z,15.62
2022-10-06T08:18:46.380Z,15.56
2022-10-06T08:22:49.040Z,15.74
2022-10-06T08:26:50.866Z,15.76
2022-10-06T08:30:52.815Z,16.02
2022-10-06T08:34:54.780Z,16.05
2022-10-06T08:38:56.947Z,16.22
2022-10-06T08:43:01.155Z,16.48
2022-10-06T08:47:11.757Z,16.82
2022-10-06T08:51:33.818Z,16.94
2022-10-06T08:56:04.273Z,17.24
2022-10-06T09:00:11.524Z,17.49
2022-10-06T09:04:28.246Z,17.69
2022-10-06T09:08:53.666Z,17.77
2022-10-06T09:13:06.636Z,18.29
2022-10-06T09:17:18.807Z,18.23
2022-10-06T09:21:30.563Z,18.10
2022-10-06T09:25:33.532Z,17.85
2022-10-06T09:29:35.599Z,17.87
2022-10-06T09:33:39.921Z,18.12
2022-10-06T09:37:56.579Z,18.00
2022-10-06T09:42:02.788Z,18.05
2022-10-06T09:46:29.375Z,18.12
2022-10-06T09:50:30.977Z,18.18
2022-10-06T09:54:34.869Z,18.35
2022-10-06T09:58:39.147Z,18.51
2022-10-06T10:02:41.184Z,18.26
2022-10-06T10:06:43.269Z,18.29
2022-10-06T10:10:45.065Z,18.45
2022-10-06T10:14:46.727Z,18.60
2022-10-06T10:18:50.916Z,18.76
2022-10-06T10:22:53.507Z,18.86
2022-10-06T10:27:04.374Z,18.87
2022-10-06T10:31:13.957Z,19.08
2022-10-06T10:35:25.033Z,19.32
2022-10-06T10:39:42.235Z,19.50
2022-10-06T10:43:51.395Z,19.68
2022-10-06T10:47:54.123Z,19.46
2022-10-06T10:52:07.163Z,19.26
2022-10-06T10:56:11.923Z,18.86
2022-10-06T11:00:22.958Z,18.55
2022-10-06T11:04:26.220Z,18.41
2022-10-06T11:09:09.751Z,18.18
2022-10-06T11:13:29.391Z,18.12
2022-10-06T11:17:44.239Z,18.23
2022-10-06T11:22:02.668Z,18.18
2022-10-06T11:26:27.049Z,18.42
2022-10-06T11:30:30.538Z,18.48
2022-10-06T11:34:32.568Z,18.57
2022-10-06T11:38:47.541Z,18.91
2022-10-06T11:43:01.099Z,18.98
2022-10-06T11:47:10.805Z,19.31
2022-10-06T11:51:25.259Z,19.68
2022-10-06T11:55:28.949Z,19.92
2022-10-06T11:59:31.686Z,19.74
2022-10-06T12:03:44.617Z,19.51
2022-10-06T12:07:52.565Z,19.15
2022-10-06T12:12:03.349Z,19.08
2022-10-06T12:21:09.983Z,19.34
2022-10-06T12:25:25.134Z,19.39
2022-10-06T12:29:50.701Z,19.57
2022-10-06T12:33:52.883Z,19.96
2022-10-06T12:37:58.325Z,20.13
2022-10-06T12:42:01.727Z,19.73
2022-10-06T12:46:12.297Z,19.26
2022-10-06T12:50:22.586Z,19.07
2022-10-06T12:54:35.532Z,18.83
2022-10-06T12:58:37.410Z,18.75
2022-10-06T13:02:43.989Z,18.59
2022-10-06T13:06:49.726Z,18.46
2022-10-06T13:10:52.055Z,18.24
2022-10-06T13:15:17.245Z,18.15
2022-10-06T13:19:26.645Z,18.14
2022-10-06T13:23:31.331Z,18.25
2022-10-06T13:27:33.267Z,18.21
2022-10-06T13:31:36.673Z,18.30
2022-10-06T13:35:38.800Z,18.30
2022-10-06T13:39:40.928Z,18.28
2022-10-06T13:43:46.364Z,18.66
2022-10-06T13:47:48.268Z,18.53
2022-10-06T13:51:53.006Z,18.90
2022-10-06T13:56:32.968Z,19.36
2022-10-06T14:00:51.939Z,19.63
2022-10-06T14:05:19.403Z,19.48
2022-10-06T14:09:27.136Z,19.48
2022-10-06T14:13:37.785Z,19.49
2022-10-06T14:17:40.962Z,19.44
2022-10-06T14:21:45.104Z,19.43
2022-10-06T14:25:49.312Z,19.58
2022-10-06T14:29:51.140Z,19.58
2022-10-06T14:33:55.073Z,19.46
2022-10-06T14:37:56.751Z,19.49
2022-10-06T14:41:58.755Z,19.36
2022-10-06T14:46:03.970Z,18.92
2022-10-06T14:50:08.509Z,18.60
2022-10-06T14:54:11.323Z,18.32
2022-10-06T14:58:13.322Z,18.23
2022-10-06T15:02:15.729Z,18.06
2022-10-06T15:06:36.649Z,17.97
2022-10-06T15:10:39.097Z,17.76
2022-10-06T15:14:40.998Z,17.59
2022-10-06T15:18:43.039Z,17.38
2022-10-06T15:22:44.860Z,17.31
2022-10-06T15:27:05.999Z,17.30
2022-10-06T15:31:08.123Z,16.96
2022-10-06T15:35:10.133Z,16.78
2022-10-06T15:39:13.955Z,16.56
2022-10-06T15:43:35.608Z,16.32
2022-10-06T15:47:37.640Z,16.13
2022-10-06T15:51:45.115Z,15.91
2022-10-06T15:55:47.024Z,16.06
2022-10-06T15:59:49.050Z,15.78
2022-10-06T16:03:51.416Z,15.43
2022-10-06T16:07:53.216Z,15.14
2022-10-06T16:11:56.455Z,14.82
2022-10-06T16:15:58.229Z,14.83
2022-10-06T16:20:00.089Z,14.85
2022-10-06T16:24:02.353Z,14.92
2022-10-06T16:28:04.270Z,15.08
2022-10-06T16:32:06.012Z,14.99
2022-10-06T16:36:09.402Z,15.08
2022-10-06T16:40:11.145Z,15.11
2022-10-06T16:44:13.141Z,15.03
2022-10-06T16:48:41.555Z,14.89
2022-10-06T16:52:43.481Z,14.94
2022-10-06T16:56:47.818Z,14.85
2022-10-06T17:00:57.406Z,14.67
2022-10-06T17:04:59.109Z,14.46
2022-10-06T17:09:01.413Z,14.19
2022-10-06T17:13:03.100Z,13.91
2022-10-06T17:17:05.690Z,13.61
2022-10-06T17:21:32.218Z,13.32
2022-10-06T17:25:32.099Z,12.95
2022-10-06T17:29:33.736Z,12.67
2022-10-06T17:33:38.847Z,12.39
2022-10-06T17:37:40.532Z,12.12
2022-10-06T17:41:44.169Z,12.06
2022-10-06T17:45:47.808Z,11.88
2022-10-06T17:49:49.878Z,11.85
2022-10-06T17:53:54.270Z,11.95
2022-10-06T17:57:58.618Z,12.11
2022-10-06T18:02:02.771Z,12.10
2022-10-06T18:06:06.615Z,12.01
2022-10-06T18:10:27.353Z,11.90
2022-10-06T18:14:34.344Z,11.62
2022-10-06T18:18:36.043Z,11.47
2022-10-06T18:22:38.157Z,11.24
2022-10-06T18:26:42.006Z,11.11
2022-10-06T18:31:08.984Z,10.81
2022-10-06T18:39:33.549Z,10.48
2022-10-06T18:43:35.567Z,10.37
2022-10-06T18:47:56.054Z,10.18
2022-10-06T18:51:58.608Z,10.08
2022-10-06T18:56:00.383Z,9.95
2022-10-06T19:00:04.050Z,9.81
2022-10-06T19:04:09.731Z,9.83
2022-10-06T19:08:11.999Z,9.75
2022-10-06T19:12:14.116Z,9.61
2022-10-06T19:16:17.581Z,9.59
2022-10-06T19:20:19.298Z,9.38
2022-10-06T19:24:21.908Z,9.35
2022-10-06T19:28:23.532Z,9.24
2022-10-06T19:32:28.239Z,9.26
2022-10-06T19:36:29.987Z,9.20
2022-10-06T19:40:31.965Z,9.05
2022-10-06T19:44:34.046Z,8.93
2022-10-06T19:48:36.866Z,8.89
2022-10-06T19:52:38.818Z,8.78
2022-10-06T19:56:41.417Z,8.79
2022-10-06T20:00:43.452Z,8.67
2022-10-06T20:04:45.499Z,8.53
2022-10-06T20:08:47.335Z,8.54
2022-10-06T20:12:49.191Z,8.55
2022-10-06T20:16:52.601Z,8.45
2022-10-06T20:20:58.800Z,8.32
2022-10-06T20:25:01.965Z,8.25
2022-10-06T20:29:07.118Z,8.24
2022-10-06T20:33:09.460Z,8.18
2022-10-06T20:37:11.483Z,8.01
2022-10-06T20:41:17.692Z,8.01
2022-10-06T20:45:20.117Z,7.85
2022-10-06T20:49:22.038Z,7.78
2022-10-06T20:53:31.462Z,7.67
2022-10-06T20:57:34.033Z,7.57
2022-10-06T21:01:37.346Z,7.53
2022-10-06T21:05:39.124Z,7.49
2022-10-06T21:09:41.087Z,7.55
2022-10-06T21:13:50.363Z,7.43
2022-10-06T21:17:52.266Z,7.43
2022-10-06T21:21:55.434Z,7.31
2022-10-06T21:26:01.305Z,7.27
2022-10-06T21:30:03.192Z,7.16
2022-10-06T21:34:05.236Z,7.07
2022-10-06T21:38:07.232Z,6.99
2022-10-06T21:42:09.200Z,6.90
2022-10-06T21:46:27.147Z,6.88
2022-10-06T21:50:30.170Z,6.85
2022-10-06T21:54:31.937Z,6.69
2022-10-06T21:58:34.039Z,6.78
2022-10-06T22:02:35.860Z,6.74
2022-10-06T22:06:37.744Z,6.61
2022-10-06T22:10:39.332Z,6.57
2022-10-06T22:14:41.230Z,6.49
2022-10-06T22:18:43.038Z,6.44
2022-10-06T22:22:44.928Z,6.43
2022-10-06T22:26:47.929Z,6.39
2022-10-06T22:30:50.308Z,6.24
2022-10-06T22:34:51.955Z,6.26
2022-10-06T22:38:55.085Z,6.18
2022-10-06T22:42:56.697Z,6.19
2022-10-06T22:46:58.586Z,5.94
2022-10-06T22:51:00.836Z,5.93
2022-10-06T22:55:02.661Z,5.90
2022-10-06T22:59:04.348Z,5.86
2022-10-06T23:03:06.664Z,5.87
2022-10-06T23:07:13.161Z,5.86
2022-10-06T23:11:17.883Z,5.83
2022-10-06T23:15:19.764Z,5.65
2022-10-06T23:19:21.834Z,5.80
2022-10-06T23:23:23.524Z,5.70
2022-10-06T23:27:25.812Z,5.65
2022-10-06T23:31:28.841Z,5.64
2022-10-06T23:35:30.820Z,5.45
2022-10-06T23:39:32.570Z,5.50
2022-10-06T23:43:34.987Z,5.44
2022-10-06T23:47:36.531Z,5.39
2022-10-06T23:51:38.550Z,5.36
2022-10-06T23:55:40.190Z,5.43
2022-10-06T23:59:42.316Z,5.40
